Station: Gove Airport  

  Atmospheric Gas Attenuation - ITU Rec 676-11   ----------------- dB/100km -----------------
Date Time Temp RH % AH g/m3 Dew Point Wind Direction Speed kph Gust kph Barometer mB Rainfall Since 9am 24GHz 47GHz 76GHz 122GHz 134GHz 241GHz
11/05 04:00 26.8 84 21.38 23.9 24 33 1011.2 2.8 45.8 43.6 86.6 229.1 256.0 889.5
11/05 03:50 26.7 84 21.26 23.8 20 24 1011.2 2.8 45.6 43.5 86.1 227.9 254.4 884.0
11/05 03:40 26.7 84 21.26 23.8 26 28 1011.2 2.8 45.6 43.5 86.1 227.9 254.4 884.0
11/05 03:30 26.7 84 21.26 23.8 24 30 1011.4 2.8 45.6 43.5 86.1 227.9 254.5 884.1
11/05 03:20 26.6 84 21.15 23.7 22 24 1011.5 2.8 45.4 43.3 85.7 226.8 253.1 879.3
11/05 03:10 26.6 84 21.15 23.7 22 26 1011.5 2.8 45.4 43.3 85.7 226.8 253.1 879.3
11/05 03:00 26.5 84 21.03 23.6 22 32 1011.6 2.8 45.1 43.1 85.2 225.6 251.5 873.9
11/05 02:50 26.6 84 21.15 23.7 20 26 1011.6 2.8 45.4 43.3 85.7 226.8 253.1 879.3
11/05 02:40 26.6 84 21.15 23.7 24 26 1011.7 2.8 45.4 43.3 85.7 226.8 253.1 879.4
11/05 02:30 26.6 85 21.4 23.9 24 35 1011.7 2.8 45.9 43.8 86.9 230.1 257.1 893.3
11/05 02:20 26.6 86 21.65 24.1 26 32 1011.8 2.8 46.4 44.3 88.2 233.4 261.1 907.2
11/05 02:10 26.3 87 21.54 24 15 17 1011.8 2.8 46.2 44.2 88.0 232.9 260.4 904.7
11/05 02:00 26.4 86 21.41 23.9 17 24 1012 2.8 45.9 43.9 87.2 230.9 258.0 896.4
11/05 01:50 26.5 86 21.53 24 17 19 1012.1 2.8 46.2 44.1 87.7 232.2 259.6 901.9
11/05 01:40 26.5 85 21.28 23.8 22 26 1012.2 2.8 45.6 43.6 86.5 228.9 255.6 888.1
11/05 01:30 26.5 86 21.53 24 19 28 1012.2 2.8 46.2 44.1 87.7 232.2 259.6 902.0
11/05 01:20 26.4 86 21.41 23.9 19 20 1012.5 2.8 45.9 44.0 87.3 231.0 258.1 896.7
11/05 01:10 26.6 85 21.4 23.9 17 19 1012.7 2.8 45.9 43.9 87.0 230.3 257.3 893.8
11/05 01:00 26.7 84 21.26 23.8 19 28 1012.8 2.8 45.6 43.5 86.2 228.2 254.7 884.9
11/05 00:50 26.5 85 21.28 23.8 19 20 1012.9 2.8 45.6 43.7 86.5 229.0 255.7 888.5
11/05 00:40 26.5 85 21.28 23.8 17 20 1013 2.8 45.6 43.7 86.5 229.1 255.7 888.5
11/05 00:30 26.6 85 21.4 23.9 19 24 1013.1 2.8 45.9 43.9 87.0 230.3 257.3 894.1
11/05 00:20 26.5 85 21.28 23.8 19 20 1013.1 2.8 45.6 43.7 86.5 229.1 255.7 888.6
11/05 00:10 26.4 86 21.41 23.9 17 20 1013.2 2.8 45.9 44.0 87.3 231.1 258.2 897.1
11/05 00:00 26.6 85 21.4 23.9 19 24 1013.3 2.8 45.9 43.9 87.0 230.4 257.4 894.2
10/05 23:50 26.5 85 21.28 23.8 20 26 1013.3 2.8 45.6 43.7 86.6 229.1 255.8 888.7
10/05 23:40 26.4 85 21.16 23.7 19 20 1013.5 2.8 45.4 43.5 86.1 227.9 254.2 883.4
10/05 23:30 26.3 85 21.04 23.6 13 17 1013.5 2.8 45.1 43.3 85.6 226.6 252.7 877.9
10/05 23:20 26.3 85 21.04 23.6 13 15 1013.4 2.8 45.2 43.3 85.6 226.6 252.7 877.8
10/05 23:10 26.3 84 20.8 23.4 17 20 1013.4 2.8 44.6 42.9 84.4 223.5 248.8 864.6
10/05 23:00 26.4 84 20.91 23.5 19 26 1013.5 2.8 44.9 43.0 84.9 224.6 250.3 869.5
10/05 22:50 26.4 84 20.91 23.5 19 22 1013.5 2.8 44.9 43.0 84.9 224.6 250.3 869.5
10/05 22:40 26.4 83 20.66 23.3 17 19 1013.5 2.8 44.3 42.5 83.7 221.4 246.3 855.8
10/05 22:30 26.5 83 20.78 23.4 19 24 1013.6 2.8 44.6 42.7 84.1 222.7 247.9 861.3
10/05 22:20 26.5 83 20.78 23.4 20 24 1013.5 2.8 44.6 42.7 84.1 222.7 247.9 861.2
10/05 22:10 26.6 84 21.15 23.7 19 22 1013.4 2.8 45.3 43.4 85.8 227.1 253.4 880.4
10/05 22:00 26.4 85 21.16 23.7 17 20 1013.4 2.8 45.4 43.5 86.1 227.9 254.2 883.3
10/05 21:50 26.4 85 21.16 23.7 15 15 1013.5 2.8 45.4 43.5 86.1 227.9 254.2 883.4
10/05 21:40 26.5 85 21.28 23.8 15 20 1013.5 2.8 45.6 43.7 86.6 229.1 255.8 888.8
10/05 21:30 26.4 85 21.16 23.7 17 24 1013.5 2.8 45.4 43.5 86.1 227.9 254.2 883.4
10/05 21:20 26.5 85 21.28 23.8 15 17 1013.4 2.8 45.6 43.7 86.6 229.1 255.8 888.8
10/05 21:10 26.6 84 21.15 23.7 22 30 1013.4 2.8 45.3 43.4 85.8 227.1 253.4 880.4
10/05 21:00 26.6 85 21.4 23.9 20 28 1013.4 2.8 45.9 43.9 87.0 230.4 257.4 894.3
10/05 20:50 26.5 85 21.28 23.8 17 20 1013.3 2.8 45.6 43.7 86.6 229.1 255.8 888.7
10/05 20:40 26.4 85 21.16 23.7 19 22 1013.2 2.8 45.4 43.5 86.1 227.8 254.2 883.2
10/05 20:30 26.4 85 21.16 23.7 20 28 1013 2.8 45.4 43.5 86.1 227.8 254.2 883.1
10/05 20:20 26.4 85 21.16 23.7 22 24 1012.8 2.8 45.4 43.5 86.0 227.8 254.1 882.9
10/05 20:10 26.4 84 20.91 23.5 22 26 1012.8 2.8 44.9 43.0 84.8 224.5 250.1 869.1
10/05 20:00 26.5 83 20.78 23.4 20 30 1012.7 2.8 44.6 42.7 84.1 222.5 247.7 860.8
10/05 19:50 26.6 82 20.64 23.3 22 30 1012.5 2.8 44.3 42.4 83.3 220.4 245.2 851.8
10/05 19:40 26.7 82 20.76 23.4 24 30 1012.3 2.8 44.5 42.5 83.7 221.6 246.7 857.1
10/05 19:30 26.7 83 21.01 23.6 20 28 1012.2 2.8 45.0 43.0 84.9 224.8 250.6 870.8
10/05 19:20 26.8 82 20.87 23.5 24 30 1012.1 2.8 44.7 42.7 84.1 222.7 248.1 861.9
10/05 19:10 26.7 82 20.76 23.4 19 22 1012 2.8 44.5 42.5 83.7 221.6 246.6 857.0
10/05 19:00 26.7 82 20.76 23.4 20 28 1012 2.8 44.5 42.5 83.7 221.6 246.6 857.0
10/05 18:50 26.8 82 20.87 23.5 20 24 1011.8 2.8 44.7 42.7 84.1 222.6 248.0 861.7
10/05 18:40 26.9 81 20.73 23.4 24 28 1011.6 2.8 44.4 42.3 83.3 220.5 245.4 852.8
10/05 18:30 27 80 20.59 23.3 22 33 1011.5 2.8 44.1 42.0 82.5 218.4 242.9 844.0
10/05 18:20 26.9 82 20.99 23.6 19 24 1011.3 2.8 45.0 42.8 84.5 223.8 249.5 866.9
10/05 18:10 26.9 81 20.73 23.4 22 24 1011.2 2.8 44.4 42.3 83.3 220.5 245.4 852.6
10/05 18:00 26.9 82 20.99 23.6 24 32 1011.1 2.8 45.0 42.8 84.5 223.8 249.4 866.8
10/05 17:50 27.1 82 21.22 23.8 28 30 1011.2 2.8 45.5 43.2 85.4 226.2 252.4 877.1
10/05 17:40 27.1 81 20.96 23.6 24 28 1011 2.8 44.9 42.7 84.2 222.8 248.3 862.8
10/05 17:30 27.2 81 21.08 23.7 22 32 1011 2.8 45.1 42.8 84.6 224.0 249.8 868.2
10/05 17:20 27.4 79 20.79 23.4 24 30 1010.9 2.8 44.5 42.2 83.0 219.7 244.6 850.0
10/05 17:10 27.6 80 21.28 23.8 22 26 1011 2.8 45.5 43.0 85.1 225.4 251.6 874.5
10/05 17:00 27.5 82 21.7 24.1 22 32 1011 2.8 46.4 43.9 87.3 231.1 258.6 898.7
10/05 16:50 27.6 82 21.82 24.2 20 26 1010.9 2.8 46.7 44.1 87.8 232.3 260.2 904.1
10/05 16:40 27.8 80 21.52 24 30 33 1010.7 2.8 46.0 43.4 86.0 227.8 254.7 885.1
10/05 16:30 27.6 80 21.28 23.8 26 35 1010.8 2.8 45.5 43.0 85.1 225.4 251.6 874.3
10/05 16:20 28.2 81 22.27 24.6 24 30 1010.6 2.8 47.6 44.6 89.2 236.3 265.1 921.5
10/05 16:10 27.4 81 21.31 23.8 32 35 1010.6 2.8 45.6 43.2 85.5 226.3 252.7 878.2
10/05 16:00 28 79 21.49 24 26 41 1010.5 2.8 45.9 43.2 85.7 226.8 253.5 881.0
10/05 15:50 28.3 79 21.84 24.3 22 28 1010.4 2.8 46.6 43.7 87.0 230.4 257.9 896.5
10/05 15:40 27.9 79 21.37 23.9 24 30 1010.4 2.8 45.7 43.0 85.2 225.5 251.9 875.5
10/05 15:30 28.3 77 21.29 23.9 24 37 1010.3 2.8 45.5 42.6 84.4 223.3 249.3 866.5
10/05 15:20 28.4 76 21.13 23.8 30 35 1010.4 2.8 45.1 42.3 83.5 221.0 246.5 856.8
10/05 15:10 28.2 77 21.17 23.8 37 41 1010.3 2.8 45.2 42.5 83.9 222.1 247.8 861.2
10/05 15:00 28.6 78 21.92 24.4 30 48 1010.4 2.8 46.8 43.7 87.0 230.5 258.2 897.3
10/05 14:50 28.9 77 22 24.5 30 37 1010.3 2.8 46.9 43.7 87.1 230.6 258.4 898.0
10/05 14:40 28.7 78 22.04 24.5 33 39 1010.4 2.8 47.0 43.9 87.5 231.7 259.7 902.6
10/05 14:30 29.1 76 21.95 24.4 30 43 1010.4 2.8 46.8 43.5 86.6 229.3 256.9 893.0
10/05 14:20 28.6 77 21.64 24.2 30 37 1010.5 2.6 46.2 43.2 85.7 226.9 253.8 882.1
10/05 14:10 28.7 74 20.91 23.6 37 46 1010.7 2.6 44.6 41.7 82.1 217.4 242.2 841.8
10/05 14:00 29.4 74 21.73 24.3 32 48 1010.7 2.6 46.3 42.9 85.2 225.7 252.5 877.7
10/05 13:50 28.5 77 21.52 24.1 26 30 1010.8 2.6 45.9 43.0 85.3 225.7 252.3 876.9
10/05 13:40 28.3 79 21.84 24.3 37 41 1010.9 2.6 46.6 43.7 87.0 230.4 258.0 896.8
10/05 13:30 28.2 80 22 24.4 32 48 1011.1 2.6 47.0 44.1 87.9 232.8 260.9 906.9
10/05 13:20 28.2 82 22.55 24.8 32 39 1011.1 2.6 48.1 45.2 90.6 240.0 269.7 937.4
10/05 13:10 28.2 81 22.27 24.6 32 39 1011.2 2.6 47.5 44.6 89.3 236.4 265.2 921.9
10/05 13:00 28.2 82 22.55 24.8 32 43 1011.3 2.6 48.1 45.2 90.6 240.0 269.7 937.5
10/05 12:50 27.7 86 23.01 25.1 28 33 1011.6 2.6 49.2 46.4 93.6 247.8 279.1 969.9
10/05 12:40 27 91 23.42 25.4 24 28 1011.8 2.6 50.1 47.6 96.6 255.7 288.6 1002.8
10/05 12:30 26.5 93 23.28 25.3 33 46 1012 2.6 49.9 47.7 96.5 255.6 288.3 1001.6
10/05 12:20 27.1 85 22 24.4 32 50 1012.1 2.2 47.1 44.7 89.3 236.5 265.0 920.9
10/05 12:10 28 86 23.39 25.4 28 32 1012.1 0.2 49.9 47.0 95.1 252.0 284.3 987.9
10/05 12:00 27.2 88 22.9 25 28 37 1012.3 0.2 49.0 46.5 93.7 248.1 279.3 970.6
10/05 11:50 28 81 22.03 24.4 28 33 1012.4 0 47.1 44.3 88.4 234.1 262.3 911.7
10/05 11:40 28.4 82 22.8 25 26 30 1012.6 0 48.6 45.6 91.7 242.9 273.3 949.7
10/05 11:30 28.4 82 22.8 25 28 39 1012.9 0 48.6 45.6 91.7 242.9 273.3 949.9

Last Refresh: 11-May-2026 04:12:12

Bureau of Meteorology